createdAt,value
2023-02-23T00:00:55.797Z,7.55
2023-02-23T00:02:57.577Z,7.58
2023-02-23T00:04:58.868Z,7.54
2023-02-23T00:07:00.756Z,7.58
2023-02-23T00:09:02.689Z,7.56
2023-02-23T00:11:04.388Z,7.57
2023-02-23T00:13:06.305Z,7.61
2023-02-23T00:15:07.811Z,7.5
2023-02-23T00:17:09.014Z,7.59
2023-02-23T00:19:10.454Z,7.55
2023-02-23T00:21:12.025Z,7.51
2023-02-23T00:23:13.635Z,7.43
2023-02-23T00:25:15.596Z,7.38
2023-02-23T00:27:17.424Z,7.37
2023-02-23T00:29:18.959Z,7.42
2023-02-23T00:31:20.222Z,7.38
2023-02-23T00:33:21.790Z,7.37
2023-02-23T00:35:23.585Z,7.46
2023-02-23T00:37:25.452Z,7.4
2023-02-23T00:39:26.875Z,7.34
2023-02-23T00:41:36.838Z,7.41
2023-02-23T00:43:29.472Z,7.37
2023-02-23T00:45:31.408Z,7.35
2023-02-23T00:47:32.841Z,7.37
2023-02-23T00:49:34.597Z,7.37
2023-02-23T00:51:36.053Z,7.35
2023-02-23T00:53:37.425Z,7.32
2023-02-23T00:55:39.342Z,7.32
2023-02-23T00:57:41.052Z,7.31
2023-02-23T00:59:42.101Z,7.3
2023-02-23T01:01:44.040Z,7.26
2023-02-23T01:03:45.473Z,7.24
2023-02-23T01:05:47.386Z,7.18
2023-02-23T01:07:49.149Z,7.07
2023-02-23T01:09:50.136Z,6.88
2023-02-23T01:11:51.453Z,6.85
2023-02-23T01:13:52.460Z,6.84
2023-02-23T01:15:53.593Z,6.8
2023-02-23T01:17:54.678Z,6.83
2023-02-23T01:19:56.270Z,6.83
2023-02-23T01:21:57.360Z,6.95
2023-02-23T01:23:58.333Z,7.02
2023-02-23T01:25:59.477Z,7.05
2023-02-23T01:28:01.017Z,7.03
2023-02-23T01:30:11.336Z,7.03
2023-02-23T01:32:04.928Z,7.03
2023-02-23T01:34:05.146Z,7.05
2023-02-23T01:36:06.123Z,7.06
2023-02-23T01:38:07.556Z,7.03
2023-02-23T01:40:09.328Z,7.09
2023-02-23T01:42:10.820Z,7.19
2023-02-23T01:44:12.248Z,7.42
2023-02-23T01:46:13.752Z,7.67
2023-02-23T01:48:15.273Z,7.73
2023-02-23T01:50:16.934Z,7.81
2023-02-23T01:52:18.782Z,7.73
2023-02-23T01:54:20.378Z,7.6
2023-02-23T01:56:22.326Z,7.65
2023-02-23T01:58:23.297Z,7.67
2023-02-23T02:00:24.910Z,7.56
2023-02-23T02:03:09.865Z,7.62
2023-02-23T02:05:11.393Z,7.61
2023-02-23T02:07:12.395Z,7.57
2023-02-23T02:09:13.678Z,7.53
2023-02-23T02:11:15.170Z,7.47
2023-02-23T02:13:16.647Z,7.44
2023-02-23T02:15:18.608Z,7.4
2023-02-23T02:17:20.088Z,7.37
2023-02-23T02:19:21.098Z,7.36
2023-02-23T02:21:22.540Z,7.47
2023-02-23T02:23:23.705Z,7.59
2023-02-23T02:25:24.796Z,7.74
2023-02-23T02:27:26.226Z,7.68
2023-02-23T02:29:28.034Z,7.49
2023-02-23T02:31:29.441Z,7.36
2023-02-23T02:33:31.290Z,7.25
2023-02-23T02:35:32.488Z,7.22
2023-02-23T02:37:34.138Z,7.21
2023-02-23T02:39:35.335Z,7.27
2023-02-23T02:41:36.612Z,7.42
2023-02-23T02:43:37.784Z,7.3
2023-02-23T02:45:39.622Z,7.29
2023-02-23T02:47:41.281Z,7.27
2023-02-23T02:49:42.540Z,7.26
2023-02-23T02:51:44.061Z,7.27
2023-02-23T02:53:45.516Z,7.37
2023-02-23T02:55:47.065Z,7.32
2023-02-23T02:57:48.109Z,7.32
2023-02-23T02:59:49.792Z,7.32
2023-02-23T03:01:51.662Z,7.29
2023-02-23T03:03:53.276Z,7.39
2023-02-23T03:05:54.228Z,7.3
2023-02-23T03:07:55.854Z,7.32
2023-02-23T03:09:57.376Z,7.3
2023-02-23T03:11:58.973Z,7.38
2023-02-23T03:14:00.547Z,7.52
2023-02-23T03:16:02.234Z,7.42
2023-02-23T03:18:03.201Z,7.42
2023-02-23T03:20:04.980Z,7.38
2023-02-23T03:22:06.577Z,7.25
2023-02-23T03:24:08.362Z,7.2
2023-02-23T03:26:09.856Z,7.2
2023-02-23T03:28:11.313Z,7.21
2023-02-23T03:30:12.881Z,7.22
2023-02-23T03:32:14.321Z,7.14
2023-02-23T03:34:15.951Z,7.17
2023-02-23T03:36:17.700Z,7.18
2023-02-23T03:38:18.759Z,7.2
2023-02-23T03:40:20.364Z,7.37
2023-02-23T03:42:21.559Z,7.3
2023-02-23T03:44:23.276Z,7.23
2023-02-23T03:46:24.598Z,7.18
2023-02-23T03:48:26.068Z,7.18
2023-02-23T03:50:27.308Z,7.15
2023-02-23T03:52:28.589Z,7.18
2023-02-23T03:56:31.422Z,7.25
2023-02-23T03:58:32.800Z,7.28
2023-02-23T04:00:34.128Z,7.3
2023-02-23T04:02:35.357Z,7.31
2023-02-23T04:04:37.094Z,7.37
2023-02-23T04:06:38.428Z,7.38
2023-02-23T04:08:40.246Z,7.47
2023-02-23T04:10:41.534Z,7.49
2023-02-23T04:12:42.539Z,7.53
2023-02-23T04:14:43.796Z,7.56
2023-02-23T04:16:45.759Z,7.59
2023-02-23T04:18:46.690Z,7.73
2023-02-23T04:20:48.221Z,7.78
2023-02-23T04:22:50.055Z,7.74
2023-02-23T04:24:51.929Z,7.69
2023-02-23T04:26:53.200Z,7.61
2023-02-23T04:28:54.980Z,7.69
2023-02-23T04:30:56.489Z,7.72
2023-02-23T04:32:57.913Z,7.79
2023-02-23T04:34:58.885Z,7.83
2023-02-23T04:36:59.927Z,7.86
2023-02-23T04:39:01.853Z,7.91
2023-02-23T04:41:03.694Z,7.93
2023-02-23T04:43:04.975Z,7.91
2023-02-23T04:45:06.001Z,7.92
2023-02-23T04:47:07.307Z,8
2023-02-23T04:49:08.760Z,7.91
2023-02-23T04:51:10.403Z,7.87
2023-02-23T04:53:11.417Z,7.82
2023-02-23T04:55:12.419Z,7.79
2023-02-23T04:57:13.771Z,7.73
2023-02-23T04:59:15.233Z,7.69
2023-02-23T05:01:17.134Z,7.63
2023-02-23T05:03:17.986Z,7.62
2023-02-23T05:05:19.723Z,7.7
2023-02-23T05:07:21.483Z,7.74
2023-02-23T05:09:23.048Z,7.73
2023-02-23T05:11:24.437Z,7.72
2023-02-23T05:13:26.055Z,7.75
2023-02-23T05:15:27.695Z,7.75
2023-02-23T05:17:29.585Z,7.7
2023-02-23T05:19:30.576Z,7.69
2023-02-23T05:21:31.920Z,7.67
2023-02-23T05:23:33.100Z,7.6
2023-02-23T05:25:34.427Z,7.6
2023-02-23T05:27:35.555Z,7.57
2023-02-23T05:29:36.855Z,7.54
2023-02-23T05:31:38.414Z,7.56
2023-02-23T05:33:40.090Z,7.59
2023-02-23T05:35:41.887Z,7.56
2023-02-23T05:37:43.353Z,7.61
2023-02-23T05:39:44.435Z,7.6
2023-02-23T05:41:45.644Z,7.6
2023-02-23T05:43:46.661Z,7.67
2023-02-23T05:45:48.079Z,7.6
2023-02-23T05:47:49.470Z,7.63
2023-02-23T05:49:50.849Z,7.64
2023-02-23T05:51:52.166Z,7.67
2023-02-23T05:53:53.343Z,7.62
2023-02-23T05:55:54.411Z,7.65
2023-02-23T05:57:56.185Z,7.62
2023-02-23T05:59:57.168Z,7.62
2023-02-23T06:01:58.550Z,7.54
2023-02-23T06:03:59.870Z,7.56
2023-02-23T06:06:01.396Z,7.54
2023-02-23T06:08:02.530Z,7.5
2023-02-23T06:10:03.767Z,7.49
2023-02-23T06:12:05.277Z,7.48
2023-02-23T06:14:06.370Z,7.49
2023-02-23T06:16:07.552Z,7.67
2023-02-23T06:18:08.904Z,7.72
2023-02-23T06:20:10.226Z,7.68
2023-02-23T06:22:11.846Z,7.58
2023-02-23T06:24:13.504Z,7.63
2023-02-23T06:26:15.415Z,7.64
2023-02-23T06:28:16.781Z,7.72
2023-02-23T06:30:18.323Z,7.68
2023-02-23T06:32:19.539Z,7.65
2023-02-23T06:34:20.410Z,7.72
2023-02-23T06:36:21.958Z,7.69
2023-02-23T06:38:23.648Z,7.66
2023-02-23T06:40:25.523Z,7.66
2023-02-23T06:42:26.587Z,7.74
2023-02-23T06:44:27.600Z,7.74
2023-02-23T06:46:28.590Z,7.72
2023-02-23T06:48:29.641Z,7.72
2023-02-23T06:50:30.778Z,7.73
2023-02-23T06:52:31.770Z,7.72
2023-02-23T06:54:33.110Z,7.74
2023-02-23T06:56:34.700Z,7.7
2023-02-23T06:58:36.334Z,7.66
2023-02-23T07:00:37.887Z,7.66
2023-02-23T07:02:39.039Z,7.65
2023-02-23T07:04:40.416Z,7.63
2023-02-23T07:06:42.021Z,7.65
2023-02-23T07:08:43.304Z,7.7
2023-02-23T07:10:44.371Z,7.76
2023-02-23T07:12:45.797Z,7.73
2023-02-23T07:14:47.086Z,7.72
2023-02-23T07:16:48.859Z,7.72
2023-02-23T07:18:49.953Z,7.7
2023-02-23T07:20:51.284Z,7.69
2023-02-23T07:22:52.667Z,7.71
2023-02-23T07:24:54.249Z,7.72
2023-02-23T07:26:55.832Z,7.78
2023-02-23T07:28:57.131Z,7.72
2023-02-23T07:30:58.201Z,7.71
2023-02-23T07:32:59.739Z,7.74
2023-02-23T07:35:01.332Z,7.74
2023-02-23T07:37:02.984Z,7.76
2023-02-23T07:39:04.085Z,7.81
2023-02-23T07:41:05.059Z,7.81
2023-02-23T07:43:06.436Z,7.82
2023-02-23T07:45:07.991Z,7.88
2023-02-23T07:47:09.649Z,7.87
2023-02-23T07:49:10.789Z,7.84
2023-02-23T07:51:12.337Z,7.89
2023-02-23T07:53:13.849Z,7.9
2023-02-23T07:55:15.039Z,7.97
2023-02-23T07:57:16.051Z,7.99
2023-02-23T08:01:19.785Z,8.12
2023-02-23T08:03:21.334Z,8.16
2023-02-23T08:05:23.576Z,8.18
2023-02-23T08:07:24.326Z,8.26
2023-02-23T08:09:25.672Z,8.33
2023-02-23T08:11:26.695Z,8.32
2023-02-23T08:13:28.580Z,8.29
2023-02-23T08:15:29.540Z,8.21
2023-02-23T08:17:30.855Z,8.26
2023-02-23T08:19:32.078Z,8.32
2023-02-23T08:21:33.763Z,8.34
2023-02-23T08:23:34.999Z,8.34
2023-02-23T08:25:36.186Z,8.39
2023-02-23T08:27:37.681Z,8.46
2023-02-23T08:29:39.131Z,8.33
2023-02-23T08:31:40.347Z,8.41
2023-02-23T08:33:41.638Z,8.32
2023-02-23T08:35:43.266Z,8.3
2023-02-23T08:37:44.218Z,8.34
2023-02-23T08:39:45.836Z,8.4
2023-02-23T08:41:47.024Z,8.46
2023-02-23T08:43:47.964Z,8.5
2023-02-23T08:45:48.928Z,8.53
2023-02-23T08:48:34.357Z,8.52
2023-02-23T08:50:35.848Z,8.56
2023-02-23T08:52:37.570Z,8.54
2023-02-23T08:54:38.989Z,8.56
2023-02-23T08:56:40.225Z,8.57
2023-02-23T08:58:41.372Z,8.68
2023-02-23T09:00:42.862Z,8.67
2023-02-23T09:02:44.344Z,8.73
2023-02-23T09:04:46.215Z,8.73
2023-02-23T09:06:47.470Z,8.66
2023-02-23T09:08:48.891Z,8.59
2023-02-23T09:10:49.989Z,8.63
2023-02-23T09:12:51.189Z,8.58
2023-02-23T09:14:52.747Z,8.58
2023-02-23T09:16:54.098Z,8.59
2023-02-23T09:18:55.284Z,8.63
2023-02-23T09:20:56.335Z,8.58
2023-02-23T09:22:57.676Z,8.56
2023-02-23T09:24:59.332Z,8.57
2023-02-23T09:27:00.495Z,8.53
2023-02-23T09:29:01.783Z,8.53
2023-02-23T09:31:03.489Z,8.57
2023-02-23T09:33:12.544Z,8.55
2023-02-23T09:37:06.699Z,8.63
2023-02-23T09:39:08.135Z,8.69
2023-02-23T09:41:09.640Z,8.75
2023-02-23T09:43:10.828Z,8.7
2023-02-23T09:45:12.022Z,8.8
2023-02-23T09:47:13.602Z,8.88
2023-02-23T09:49:14.554Z,8.89
2023-02-23T09:53:17.110Z,9.05
2023-02-23T09:55:18.553Z,9.13
2023-02-23T09:57:20.249Z,9.19
2023-02-23T09:59:21.689Z,9.26
2023-02-23T10:01:23.291Z,9.47
2023-02-23T10:03:24.390Z,9.35
2023-02-23T10:05:25.626Z,9.42
2023-02-23T10:07:26.754Z,9.33
2023-02-23T10:09:28.510Z,9.68
2023-02-23T10:11:29.785Z,9.58
2023-02-23T10:13:31.598Z,9.58
2023-02-23T10:15:32.978Z,9.73
2023-02-23T10:17:34.540Z,9.63
2023-02-23T10:19:35.511Z,9.74
2023-02-23T10:21:36.936Z,9.68
2023-02-23T10:23:38.089Z,9.88
2023-02-23T10:25:39.265Z,10.05
2023-02-23T10:27:40.699Z,9.96
2023-02-23T10:29:41.930Z,9.95
2023-02-23T10:31:43.509Z,9.89
2023-02-23T10:33:44.566Z,10.03
2023-02-23T10:35:46.174Z,10.08
2023-02-23T10:37:47.882Z,10.03
2023-02-23T10:39:48.839Z,10.03
2023-02-23T10:41:49.794Z,10.1
2023-02-23T10:43:51.155Z,10.24
2023-02-23T10:45:52.581Z,10.09
2023-02-23T10:47:53.582Z,10
2023-02-23T10:49:54.764Z,10.07
2023-02-23T10:51:55.859Z,10.22
2023-02-23T10:53:59.836Z,10.16
2023-02-23T10:55:58.699Z,10.2
2023-02-23T10:57:59.784Z,10.28
2023-02-23T11:00:00.787Z,10.23
2023-02-23T11:02:02.890Z,10.21
2023-02-23T11:04:06.100Z,10.2
2023-02-23T11:06:04.084Z,10.2
2023-02-23T11:08:05.923Z,10.18
2023-02-23T11:10:06.869Z,10.24
2023-02-23T11:12:08.676Z,10.15
2023-02-23T11:14:09.630Z,10.12
2023-02-23T11:18:11.563Z,10.24
2023-02-23T11:20:13.466Z,10.27
2023-02-23T11:22:14.910Z,10.31
2023-02-23T11:24:15.919Z,10.34
2023-02-23T11:26:17.408Z,10.42
2023-02-23T11:28:18.813Z,10.4
2023-02-23T11:30:20.067Z,10.34
2023-02-23T11:32:21.817Z,10.38
2023-02-23T11:34:23.111Z,10.29
2023-02-23T11:36:24.233Z,10.27
2023-02-23T11:38:25.651Z,10.1
2023-02-23T11:40:27.082Z,10.14
2023-02-23T11:42:28.765Z,10.04
2023-02-23T11:44:29.691Z,10.09
2023-02-23T11:46:31.266Z,10.14
2023-02-23T11:48:32.235Z,10.1
2023-02-23T11:50:33.718Z,10.04
2023-02-23T11:52:34.805Z,10.14
2023-02-23T11:54:36.417Z,10.23
2023-02-23T11:56:37.331Z,10.32
2023-02-23T11:58:38.844Z,10.3
2023-02-23T12:00:40.575Z,10.32
2023-02-23T12:02:41.554Z,10.33
2023-02-23T12:04:42.504Z,10.32
2023-02-23T12:06:44.117Z,10.39
2023-02-23T12:08:45.216Z,10.35
2023-02-23T12:10:46.735Z,10.31
2023-02-23T12:12:47.973Z,10.24
2023-02-23T12:14:48.892Z,10.27
2023-02-23T12:16:50.488Z,10.31
2023-02-23T12:18:51.919Z,10.32
2023-02-23T12:20:53.338Z,10.39
2023-02-23T12:22:54.438Z,10.38
2023-02-23T12:24:55.927Z,10.55
2023-02-23T12:26:57.417Z,10.49
2023-02-23T12:28:58.425Z,10.28
2023-02-23T12:30:59.842Z,10.35
2023-02-23T12:33:01.445Z,10.31
2023-02-23T12:35:02.912Z,10.24
2023-02-23T12:37:04.658Z,10.24
2023-02-23T12:39:06.220Z,10.33
2023-02-23T12:41:07.824Z,10.42
2023-02-23T12:43:09.715Z,10.33
2023-02-23T12:45:11.343Z,10.35
2023-02-23T12:47:12.325Z,10.32
2023-02-23T12:49:14.235Z,10.42
2023-02-23T12:51:16.627Z,10.39
2023-02-23T12:53:17.287Z,10.41
2023-02-23T12:55:18.714Z,10.51
2023-02-23T12:57:20.130Z,10.51
2023-02-23T12:59:21.673Z,10.6
2023-02-23T13:01:23.566Z,10.56
2023-02-23T13:03:24.915Z,10.54
2023-02-23T13:05:26.656Z,10.54
2023-02-23T13:07:28.531Z,10.59
2023-02-23T13:09:29.738Z,10.65
2023-02-23T13:11:31.481Z,10.74
2023-02-23T13:13:33.029Z,10.8
2023-02-23T13:15:34.725Z,10.94
2023-02-23T13:17:35.663Z,11.11
2023-02-23T13:19:37.364Z,11.23
2023-02-23T13:21:38.700Z,11.33
2023-02-23T13:23:40.505Z,11.41
2023-02-23T13:25:41.993Z,12.01
2023-02-23T13:27:43.630Z,12.48
2023-02-23T13:29:44.493Z,12.5
2023-02-23T13:31:46.330Z,12.23
2023-02-23T13:33:47.040Z,12.11
2023-02-23T13:35:48.463Z,11.96
2023-02-23T13:37:50.212Z,11.89
2023-02-23T13:41:53.239Z,12.09
2023-02-23T13:43:54.541Z,12.22
2023-02-23T13:45:55.775Z,12.3
2023-02-23T13:47:57.850Z,12.02
2023-02-23T13:49:59.277Z,11.93
2023-02-23T13:52:00.553Z,12.2
2023-02-23T13:54:01.505Z,12.3
2023-02-23T13:56:04.238Z,12.49
2023-02-23T13:58:03.713Z,12.82
2023-02-23T14:00:05.276Z,13.06
2023-02-23T14:02:06.363Z,13.34
2023-02-23T14:04:07.080Z,13.29
2023-02-23T14:06:08.515Z,13.38
2023-02-23T14:08:09.743Z,13.41
2023-02-23T14:10:10.781Z,13.07
2023-02-23T14:14:13.926Z,13.77
2023-02-23T14:16:15.378Z,14.01
2023-02-23T14:18:16.620Z,13.36
2023-02-23T14:20:24.500Z,13.77
2023-02-23T14:22:18.760Z,13.83
2023-02-23T14:24:19.565Z,14.06
2023-02-23T14:26:20.631Z,14.13
2023-02-23T14:28:22.448Z,13.7
2023-02-23T14:30:24.188Z,13.77
2023-02-23T14:32:25.456Z,14.35
2023-02-23T14:34:26.358Z,14.52
2023-02-23T14:36:27.534Z,14.37
2023-02-23T14:38:33.642Z,14.21
2023-02-23T14:40:29.580Z,13.75
2023-02-23T14:42:30.979Z,13.68
2023-02-23T14:44:32.278Z,13.9
2023-02-23T14:46:34.067Z,13.83
2023-02-23T14:48:35.423Z,13.82
2023-02-23T14:50:36.950Z,13.03
2023-02-23T14:52:37.932Z,13.36
2023-02-23T14:54:38.766Z,13.35
2023-02-23T14:56:44.035Z,13.16
2023-02-23T14:58:40.884Z,13.19
2023-02-23T15:00:42.437Z,12.86
2023-02-23T15:02:53.925Z,12.88
2023-02-23T15:04:45.211Z,13.01
2023-02-23T15:06:46.556Z,12.79
2023-02-23T15:08:47.537Z,12.44
2023-02-23T15:10:49.034Z,12.41
2023-02-23T15:12:50.761Z,12.32
2023-02-23T15:14:52.373Z,12.27
2023-02-23T15:16:53.966Z,12.18
2023-02-23T15:18:55.109Z,12.19
2023-02-23T15:20:56.860Z,12.08
2023-02-23T15:22:58.627Z,12.11
2023-02-23T15:25:00.014Z,12.01
2023-02-23T15:27:01.041Z,12
2023-02-23T15:29:02.381Z,11.97
2023-02-23T15:31:03.596Z,11.93
2023-02-23T15:33:48.797Z,11.95
2023-02-23T15:35:50.614Z,11.94
2023-02-23T15:37:55.434Z,11.91
2023-02-23T15:39:53.631Z,11.89
2023-02-23T15:41:54.724Z,11.82
2023-02-23T15:43:55.841Z,11.78
2023-02-23T15:45:57.498Z,11.68
2023-02-23T15:50:00.773Z,11.62
2023-02-23T15:52:02.742Z,11.55
2023-02-23T15:54:04.688Z,11.5
2023-02-23T15:56:06.261Z,11.47
2023-02-23T15:58:07.989Z,11.46
2023-02-23T16:00:09.420Z,11.41
2023-02-23T16:02:10.304Z,11.37
2023-02-23T16:04:11.425Z,11.35
2023-02-23T16:06:12.295Z,11.31
2023-02-23T16:08:13.719Z,11.3
2023-02-23T16:10:15.117Z,11.25
2023-02-23T16:12:16.441Z,11.22
2023-02-23T16:14:18.001Z,11.21
2023-02-23T16:16:20.310Z,11.14
2023-02-23T16:18:24.136Z,11.1
2023-02-23T16:20:22.414Z,11.04
2023-02-23T16:22:23.687Z,10.96
2023-02-23T16:24:25.157Z,10.88
2023-02-23T16:26:26.249Z,10.86
2023-02-23T16:28:27.869Z,10.84
2023-02-23T16:30:29.366Z,10.8
2023-02-23T16:32:30.567Z,10.78
2023-02-23T16:34:31.660Z,10.74
2023-02-23T16:36:32.686Z,10.7
2023-02-23T16:38:34.172Z,10.72
2023-02-23T16:40:35.926Z,10.68
2023-02-23T16:42:36.934Z,10.63
2023-02-23T16:44:43.620Z,10.55
2023-02-23T16:46:39.579Z,10.6
2023-02-23T16:48:40.888Z,10.54
2023-02-23T16:50:42.024Z,10.46
2023-02-23T16:52:43.715Z,10.4
2023-02-23T16:54:45.603Z,10.34
2023-02-23T16:56:47.106Z,10.31
2023-02-23T16:58:48.828Z,10.34
2023-02-23T17:00:55.089Z,10.26
2023-02-23T17:02:51.480Z,10.24
2023-02-23T17:04:53.269Z,10.16
2023-02-23T17:06:54.222Z,10.09
2023-02-23T17:08:58.117Z,10.03
2023-02-23T17:10:57.941Z,9.97
2023-02-23T17:12:59.839Z,9.9
2023-02-23T17:15:01.718Z,9.9
2023-02-23T17:17:03.249Z,9.91
2023-02-23T17:19:04.200Z,9.94
2023-02-23T17:21:05.621Z,10.03
2023-02-23T17:23:06.551Z,10.05
2023-02-23T17:25:07.674Z,10.05
2023-02-23T17:27:09.230Z,9.97
2023-02-23T17:29:10.399Z,9.95
2023-02-23T17:31:12.358Z,9.97
2023-02-23T17:33:13.608Z,9.98
2023-02-23T17:35:14.620Z,9.99
2023-02-23T17:37:16.373Z,9.98
2023-02-23T17:39:17.555Z,9.88
2023-02-23T17:41:19.456Z,9.84
2023-02-23T17:43:28.515Z,9.83
2023-02-23T17:45:21.902Z,9.81
2023-02-23T17:47:23.643Z,9.78
2023-02-23T17:49:24.688Z,9.76
2023-02-23T17:51:25.654Z,9.75
2023-02-23T17:53:26.730Z,9.73
2023-02-23T17:55:28.064Z,9.71
2023-02-23T17:57:29.041Z,9.67
2023-02-23T17:59:32.080Z,9.64
2023-02-23T18:01:31.754Z,9.58
2023-02-23T18:03:33.041Z,9.53
2023-02-23T18:05:34.906Z,9.59
2023-02-23T18:07:36.705Z,9.56
2023-02-23T18:09:38.079Z,9.54
2023-02-23T18:11:39.481Z,9.51
2023-02-23T18:13:41.248Z,9.54
2023-02-23T18:15:42.187Z,9.52
2023-02-23T18:17:44.036Z,9.52
2023-02-23T18:19:47.018Z,9.49
2023-02-23T18:21:47.362Z,9.49
2023-02-23T18:23:48.701Z,9.46
2023-02-23T18:25:50.438Z,9.49
2023-02-23T18:27:51.446Z,9.46
2023-02-23T18:29:53.220Z,9.37
2023-02-23T18:31:54.997Z,9.34
2023-02-23T18:33:56.330Z,9.31
2023-02-23T18:35:58.115Z,9.28
2023-02-23T18:37:59.624Z,9.27
2023-02-23T18:40:01.049Z,9.28
2023-02-23T18:42:06.175Z,9.26
2023-02-23T18:44:03.624Z,9.24
2023-02-23T18:46:05.457Z,9.19
2023-02-23T18:48:07.261Z,9.18
2023-02-23T18:50:08.186Z,9.19
2023-02-23T18:52:09.629Z,9.14
2023-02-23T18:56:12.235Z,9.1
2023-02-23T18:58:13.833Z,9.07
2023-02-23T19:00:15.004Z,9.06
2023-02-23T19:02:16.319Z,9.08
2023-02-23T19:04:17.560Z,9.06
2023-02-23T19:06:19.092Z,9.05
2023-02-23T19:08:20.082Z,9.01
2023-02-23T19:10:21.224Z,8.98
2023-02-23T19:12:22.995Z,8.94
2023-02-23T19:14:36.821Z,8.89
2023-02-23T19:16:25.781Z,8.87
2023-02-23T19:18:26.932Z,8.88
2023-02-23T19:20:28.733Z,8.83
2023-02-23T19:22:30.471Z,8.83
2023-02-23T19:24:32.531Z,8.8
2023-02-23T19:26:34.019Z,8.83
2023-02-23T19:28:35.752Z,8.82
2023-02-23T19:30:36.924Z,8.8
2023-02-23T19:32:38.599Z,8.79
2023-02-23T19:34:39.915Z,8.86
2023-02-23T19:36:41.166Z,8.83
2023-02-23T19:38:42.317Z,8.88
2023-02-23T19:40:43.731Z,8.88
2023-02-23T19:42:45.238Z,8.93
2023-02-23T19:44:46.360Z,8.87
2023-02-23T19:46:47.692Z,8.84
2023-02-23T19:48:49.020Z,8.83
2023-02-23T19:50:50.463Z,8.84
2023-02-23T19:52:52.074Z,8.79
2023-02-23T19:55:02.052Z,8.85
2023-02-23T19:56:56.344Z,8.84
2023-02-23T19:58:55.874Z,8.81
2023-02-23T20:00:57.519Z,8.83
2023-02-23T20:02:58.653Z,8.82
2023-02-23T20:05:00.144Z,8.83
2023-02-23T20:07:11.501Z,8.81
2023-02-23T20:09:03.392Z,8.78
2023-02-23T20:11:05.341Z,8.71
2023-02-23T20:13:06.499Z,8.64
2023-02-23T20:15:08.236Z,8.47
2023-02-23T20:17:09.612Z,8.38
2023-02-23T20:19:10.568Z,8.32
2023-02-23T20:21:11.664Z,8.34
2023-02-23T20:23:13.114Z,8.34
2023-02-23T20:25:14.719Z,8.31
2023-02-23T20:27:15.914Z,8.27
2023-02-23T20:29:19.031Z,8.3
2023-02-23T20:31:18.808Z,8.3
2023-02-23T20:33:20.332Z,8.17
2023-02-23T20:35:21.895Z,8.07
2023-02-23T20:37:23.663Z,8.08
2023-02-23T20:39:24.789Z,8.11
2023-02-23T20:41:25.831Z,8.09
2023-02-23T20:43:27.586Z,8.09
2023-02-23T20:45:28.553Z,8.09
2023-02-23T20:47:30.160Z,8.04
2023-02-23T20:49:31.895Z,8.03
2023-02-23T20:51:33.769Z,8.04
2023-02-23T20:53:35.562Z,7.97
2023-02-23T20:55:37.054Z,8.04
2023-02-23T20:57:38.328Z,8.04
2023-02-23T20:59:40.073Z,8.04
2023-02-23T21:01:41.187Z,8.02
2023-02-23T21:03:42.489Z,8.03
2023-02-23T21:05:45.166Z,8
2023-02-23T21:07:45.657Z,7.99
2023-02-23T21:09:47.167Z,8
2023-02-23T21:11:48.578Z,8.03
2023-02-23T21:13:49.716Z,8.13
2023-02-23T21:15:50.866Z,8.16
2023-02-23T21:19:53.057Z,8.19
2023-02-23T21:21:54.727Z,8.16
2023-02-23T21:23:56.243Z,8.15
2023-02-23T21:26:06.841Z,8.14
2023-02-23T21:27:59.069Z,8.15
2023-02-23T21:30:00.181Z,8.2
2023-02-23T21:32:01.480Z,8.1
2023-02-23T21:34:03.192Z,8.08
2023-02-23T21:36:05.033Z,8.03
2023-02-23T21:38:06.028Z,8.03
2023-02-23T21:40:07.205Z,8.08
2023-02-23T21:42:08.889Z,8.07
2023-02-23T21:44:10.775Z,8.09
2023-02-23T21:46:11.955Z,8.11
2023-02-23T21:48:14.154Z,8.09
2023-02-23T21:50:15.057Z,8.13
2023-02-23T21:52:16.420Z,8.15
2023-02-23T21:54:17.783Z,8.2
2023-02-23T21:56:18.694Z,8.19
2023-02-23T21:58:20.180Z,8.27
2023-02-23T22:00:21.802Z,8.27
2023-02-23T22:02:23.628Z,8.09
2023-02-23T22:04:25.412Z,8.01
2023-02-23T22:06:26.814Z,7.91
2023-02-23T22:08:28.131Z,7.94
2023-02-23T22:10:29.712Z,7.98
2023-02-23T22:12:31.493Z,8
2023-02-23T22:14:32.650Z,7.86
2023-02-23T22:16:34.422Z,7.81
2023-02-23T22:19:19.809Z,7.76
2023-02-23T22:21:21.384Z,7.71
2023-02-23T22:23:23.150Z,7.66
2023-02-23T22:25:30.322Z,7.61
2023-02-23T22:27:26.210Z,7.59
2023-02-23T22:29:27.888Z,7.51
2023-02-23T22:31:29.112Z,7.55
2023-02-23T22:33:30.760Z,7.57
2023-02-23T22:35:31.797Z,7.59
2023-02-23T22:37:33.573Z,7.68
2023-02-23T22:39:34.701Z,7.66
2023-02-23T22:41:36.410Z,7.64
2023-02-23T22:43:37.375Z,7.56
2023-02-23T22:45:38.978Z,7.56
2023-02-23T22:47:39.979Z,7.55
2023-02-23T22:49:41.088Z,7.53
2023-02-23T22:51:42.528Z,7.53
2023-02-23T22:53:44.266Z,7.53
2023-02-23T22:55:45.686Z,7.5
2023-02-23T22:57:46.694Z,7.46
2023-02-23T22:59:48.621Z,7.4
2023-02-23T23:01:50.607Z,7.42
2023-02-23T23:03:51.848Z,7.43
2023-02-23T23:05:53.360Z,7.47
2023-02-23T23:07:58.879Z,7.5
2023-02-23T23:09:56.813Z,7.54
2023-02-23T23:11:58.500Z,7.58
2023-02-23T23:14:00.358Z,7.58
2023-02-23T23:16:07.606Z,7.56
2023-02-23T23:18:03.122Z,7.57
2023-02-23T23:20:04.913Z,7.58
2023-02-23T23:22:06.363Z,7.58
2023-02-23T23:24:07.406Z,7.5
2023-02-23T23:26:09.320Z,7.47
2023-02-23T23:28:10.865Z,7.47
2023-02-23T23:30:11.859Z,7.43
2023-02-23T23:32:13.735Z,7.38
2023-02-23T23:34:15.036Z,7.45
2023-02-23T23:36:16.529Z,7.48
2023-02-23T23:38:18.139Z,7.53
2023-02-23T23:40:19.479Z,7.54
2023-02-23T23:42:21.252Z,7.68
2023-02-23T23:44:22.244Z,7.62
2023-02-23T23:46:23.448Z,7.68
2023-02-23T23:48:25.352Z,7.66
2023-02-23T23:50:27.430Z,7.62
2023-02-23T23:52:28.749Z,7.65
2023-02-23T23:54:30.178Z,7.63
2023-02-23T23:56:31.332Z,7.66
2023-02-23T23:58:33.124Z,7.56
